Time;durP1;ratioP1;P1;durP2;ratioP2;P2;SDS_P1;SDS_P2;PMS_P1;PMS_P2;Temp;Humidity;BMP_temperature;BMP_pressure;BME280_temperature;BME280_humidity;BME280_pressure;Samples;Min_cycle;Max_cycle;Signal;HPM_P1;HPM_P2
2022/08/05 00:01:40;;;;;;;6.30;4.85;;;18.00;93.10;;;;;;5095307;28;20107;-75
2022/08/05 00:04:05;;;;;;;4.93;4.45;;;18.10;92.60;;;;;;5095571;28;20027;-76
2022/08/05 00:06:31;;;;;;;5.38;4.88;;;18.00;93.30;;;;;;5094346;28;20020;-75
2022/08/05 00:08:57;;;;;;;5.38;4.88;;;18.10;92.40;;;;;;5095475;28;20028;-75
2022/08/05 00:11:22;;;;;;;7.10;5.10;;;18.00;93.70;;;;;;5095373;28;20469;-74
2022/08/05 00:13:48;;;;;;;9.43;5.03;;;18.00;93.40;;;;;;5095438;28;20028;-74
2022/08/05 00:16:14;;;;;;;5.95;5.00;;;18.00;92.70;;;;;;5094100;28;20355;-74
2022/08/05 00:18:44;;;;;;;6.22;4.78;;;18.00;93.20;;;;;;5095292;28;20035;-74
2022/08/05 00:21:10;;;;;;;5.65;4.93;;;18.00;92.20;;;;;;5095265;28;20031;-75
2022/08/05 00:23:36;;;;;;;5.00;4.60;;;18.00;91.80;;;;;;5095194;28;20377;-74
2022/08/05 00:26:02;;;;;;;5.88;5.32;;;18.00;91.90;;;;;;5094077;28;20134;-75
2022/08/05 00:28:28;;;;;;;7.55;5.15;;;18.00;91.90;;;;;;5095100;28;20028;-74
2022/08/05 00:30:54;;;;;;;7.95;5.07;;;18.00;92.70;;;;;;5095152;28;20032;-74
2022/08/05 00:33:19;;;;;;;5.05;4.38;;;18.00;92.30;;;;;;5094778;28;20024;-74
2022/08/05 00:35:45;;;;;;;5.88;4.88;;;18.00;92.10;;;;;;5094977;28;20093;-75
2022/08/05 00:38:10;;;;;;;4.82;4.40;;;18.00;92.30;;;;;;5093497;28;20016;-75
2022/08/05 00:40:47;;;;;;;5.90;4.63;;;18.00;91.80;;;;;;5094906;28;20069;-75
2022/08/05 00:43:12;;;;;;;6.25;4.75;;;17.90;92.50;;;;;;5093508;28;20381;-74
2022/08/05 00:45:38;;;;;;;13.45;4.85;;;18.00;91.80;;;;;;5093513;28;20089;-75
2022/08/05 00:48:04;;;;;;;5.85;4.97;;;17.90;92.60;;;;;;5094573;28;20065;-74
2022/08/05 00:50:30;;;;;;;5.00;4.38;;;17.90;92.00;;;;;;5094482;28;20040;-74
2022/08/05 00:52:55;;;;;;;7.50;4.95;;;17.90;92.10;;;;;;5094542;28;20030;-74
2022/08/05 00:55:22;;;;;;;5.60;4.50;;;17.90;91.70;;;;;;5094602;28;20046;-75
2022/08/05 00:57:47;;;;;;;5.25;4.10;;;17.90;92.20;;;;;;5094351;28;20020;-75
2022/08/05 01:00:13;;;;;;;5.53;4.97;;;17.90;91.80;;;;;;5094437;28;20024;-75
2022/08/05 01:02:39;;;;;;;7.65;5.47;;;17.90;92.00;;;;;;5094298;28;20028;-74
2022/08/05 01:05:04;;;;;;;5.70;4.50;;;17.90;92.40;;;;;;5093143;28;20035;-75
2022/08/05 01:07:30;;;;;;;6.78;4.75;;;17.90;91.90;;;;;;5092872;28;20023;-74
2022/08/05 01:09:56;;;;;;;6.75;4.35;;;17.90;93.00;;;;;;5094344;28;20043;-75
2022/08/05 01:12:23;;;;;;;5.75;4.13;;;17.80;92.70;;;;;;5094062;28;20024;-74
2022/08/05 01:14:55;;;;;;;4.80;4.40;;;17.90;93.10;;;;;;5093180;28;20094;-74
2022/08/05 01:17:47;;;;;;;4.78;4.25;;;17.80;93.10;;;;;;5094216;28;20061;-74
2022/08/05 01:20:32;;;;;;;4.85;4.45;;;17.80;93.50;;;;;;5093992;28;20536;-75
2022/08/05 01:22:58;;;;;;;5.45;4.00;;;17.80;94.10;;;;;;5092844;28;20424;-74
2022/08/05 01:25:48;;;;;;;5.28;4.78;;;17.80;93.90;;;;;;5094224;28;20020;-74
2022/08/05 01:28:19;;;;;;;5.18;4.40;;;17.80;94.30;;;;;;5094060;28;20402;-75
2022/08/05 01:30:55;;;;;;;5.80;4.70;;;17.80;94.60;;;;;;5093918;28;20043;-75
2022/08/05 01:33:24;;;;;;;5.78;4.72;;;17.80;94.80;;;;;;5093820;28;20109;-74
2022/08/05 01:35:52;;;;;;;4.95;4.55;;;17.80;95.00;;;;;;5093758;28;20608;-74
2022/08/05 01:38:20;;;;;;;5.28;4.53;;;17.80;94.70;;;;;;5093409;28;20050;-74
2022/08/05 01:40:47;;;;;;;12.02;4.88;;;17.80;95.80;;;;;;5093768;28;20074;-75
2022/08/05 01:43:14;;;;;;;5.95;5.20;;;17.70;95.50;;;;;;5092287;28;20027;-74
2022/08/05 01:45:40;;;;;;;5.78;5.30;;;17.80;95.50;;;;;;5093272;28;20021;-74
2022/08/05 01:48:07;;;;;;;4.05;3.75;;;17.70;96.10;;;;;;5093140;28;20093;-75
2022/08/05 01:50:37;;;;;;;5.32;4.82;;;17.80;96.00;;;;;;5093214;28;20047;-74
2022/08/05 01:53:08;;;;;;;6.47;5.25;;;17.70;96.00;;;;;;5093350;28;20081;-75
2022/08/05 01:55:35;;;;;;;6.05;5.35;;;17.80;96.60;;;;;;5093522;28;20027;-74
2022/08/05 01:58:03;;;;;;;5.35;4.85;;;17.80;96.60;;;;;;5093216;28;20027;-74
2022/08/05 02:00:32;;;;;;;5.32;4.82;;;17.70;96.40;;;;;;5093265;28;20020;-75
2022/08/05 02:03:03;;;;;;;6.30;5.70;;;17.80;97.00;;;;;;5093326;28;20028;-75
2022/08/05 02:05:32;;;;;;;6.50;5.90;;;17.80;97.40;;;;;;5092180;28;20081;-75
2022/08/05 02:07:58;;;;;;;5.68;5.13;;;17.80;98.30;;;;;;5093194;28;20032;-74
2022/08/05 02:10:27;;;;;;;6.03;5.53;;;17.80;97.50;;;;;;5093133;28;20883;-74
2022/08/05 02:13:00;;;;;;;6.40;5.35;;;17.80;98.20;;;;;;5093250;28;20020;-74
2022/08/05 02:15:32;;;;;;;6.00;4.65;;;17.80;97.50;;;;;;5092012;28;20024;-74
2022/08/05 02:18:03;;;;;;;6.30;5.57;;;17.70;96.60;;;;;;5093079;28;20230;-74
2022/08/05 02:20:36;;;;;;;7.57;5.30;;;17.70;99.50;;;;;;5095286;28;20028;-75
2022/08/05 02:23:07;;;;;;;5.65;4.93;;;17.70;98.30;;;;;;5097482;28;20384;-75
2022/08/05 02:25:41;;;;;;;6.80;5.00;;;17.60;97.70;;;;;;5097372;28;20028;-75
2022/08/05 02:28:09;;;;;;;7.20;5.63;;;17.60;97.60;;;;;;5097360;28;20401;-74
2022/08/05 02:30:44;;;;;;;5.60;4.72;;;17.60;98.80;;;;;;5097096;28;20028;-75
2022/08/05 02:33:13;;;;;;;5.68;5.15;;;17.50;98.70;;;;;;5097202;28;20020;-74
2022/08/05 02:35:41;;;;;;;6.32;5.43;;;17.60;98.50;;;;;;5097008;28;20020;-75
2022/08/05 02:38:08;;;;;;;5.18;4.78;;;17.60;98.50;;;;;;5097162;28;20023;-74
2022/08/05 02:40:35;;;;;;;7.70;5.15;;;17.50;98.90;;;;;;5095660;28;20481;-75
2022/08/05 02:43:01;;;;;;;5.15;4.75;;;17.50;99.10;;;;;;5096971;28;20032;-75
2022/08/05 02:45:27;;;;;;;4.88;4.38;;;17.50;99.00;;;;;;5096940;28;20021;-74
2022/08/05 02:47:56;;;;;;;5.15;4.65;;;17.50;98.70;;;;;;5096350;28;20055;-74
2022/08/05 02:50:23;;;;;;;6.57;4.88;;;17.50;98.30;;;;;;5096614;28;20028;-74
2022/08/05 02:52:49;;;;;;;5.30;4.80;;;17.50;98.50;;;;;;5096717;28;20122;-75
2022/08/05 02:55:15;;;;;;;5.18;4.75;;;17.50;99.50;;;;;;5095372;28;20020;-75
2022/08/05 02:57:42;;;;;;;5.57;5.03;;;17.50;99.80;;;;;;5096474;28;20020;-74
2022/08/05 03:00:08;;;;;;;6.10;4.53;;;17.40;99.90;;;;;;5095457;28;20027;-75
2022/08/05 03:02:39;;;;;;;6.45;4.88;;;17.40;99.90;;;;;;5096577;28;20062;-75
2022/08/05 03:05:08;;;;;;;7.30;4.55;;;17.40;99.90;;;;;;5096635;28;20016;-75
2022/08/05 03:07:34;;;;;;;5.63;5.13;;;17.40;99.90;;;;;;5096478;28;20025;-75
2022/08/05 03:10:00;;;;;;;5.05;4.63;;;17.30;99.90;;;;;;5096270;28;20067;-75
2022/08/05 03:12:37;;;;;;;7.43;5.13;;;17.30;99.90;;;;;;5096444;28;20066;-75
2022/08/05 03:15:05;;;;;;;6.55;5.90;;;17.30;99.90;;;;;;5096420;28;20027;-74
2022/08/05 03:17:31;;;;;;;5.30;4.80;;;17.20;99.90;;;;;;5094986;28;20020;-74
2022/08/05 03:19:57;;;;;;;4.95;4.35;;;17.20;99.90;;;;;;5096182;28;20637;-74
2022/08/05 03:22:23;;;;;;;5.13;4.70;;;17.20;99.90;;;;;;5096282;28;20059;-74
2022/08/05 03:24:49;;;;;;;5.47;4.90;;;17.10;99.90;;;;;;5096144;28;20020;-75
2022/08/05 03:27:15;;;;;;;6.22;4.68;;;17.10;99.90;;;;;;5096055;28;20028;-74
2022/08/05 03:29:41;;;;;;;6.53;4.82;;;17.10;99.90;;;;;;5094477;28;20039;-75
2022/08/05 03:32:10;;;;;;;5.63;5.10;;;17.00;99.90;;;;;;5094852;28;20022;-75
2022/08/05 03:34:36;;;;;;;6.10;5.32;;;17.00;99.90;;;;;;5094655;28;20040;-75
2022/08/05 03:37:04;;;;;;;8.10;5.00;;;16.90;99.90;;;;;;5096049;28;20117;-75
2022/08/05 03:39:30;;;;;;;6.63;5.43;;;17.00;99.90;;;;;;5095909;28;20091;-75
2022/08/05 03:41:56;;;;;;;7.05;6.10;;;16.90;99.90;;;;;;5095880;28;20107;-75
2022/08/05 03:44:23;;;;;;;6.10;5.60;;;16.90;99.90;;;;;;5094661;28;20020;-75
2022/08/05 03:46:49;;;;;;;5.40;4.90;;;16.90;99.90;;;;;;5095582;28;20059;-75
2022/08/05 03:49:15;;;;;;;5.93;5.18;;;16.90;99.90;;;;;;5094370;28;20072;-74
2022/08/05 03:51:59;;;;;;;6.30;5.22;;;16.90;99.90;;;;;;5095519;28;20085;-74
2022/08/05 03:54:36;;;;;;;5.85;5.25;;;17.00;99.90;;;;;;5095652;28;20052;-75
2022/08/05 03:57:04;;;;;;;6.35;5.57;;;17.10;99.90;;;;;;5095538;28;20085;-75
2022/08/05 03:59:36;;;;;;;5.80;5.30;;;17.30;99.90;;;;;;5095721;28;20085;-75
2022/08/05 04:02:02;;;;;;;6.13;5.57;;;17.50;99.90;;;;;;5095284;28;20470;-75
2022/08/05 04:04:30;;;;;;;5.60;5.10;;;17.60;99.90;;;;;;5095485;28;20039;-74
2022/08/05 04:06:57;;;;;;;5.97;5.00;;;17.80;99.90;;;;;;5095308;28;20016;-74
2022/08/05 04:09:24;;;;;;;8.50;4.88;;;18.00;99.90;;;;;;5094090;28;20063;-75
2022/08/05 04:11:50;;;;;;;7.60;5.35;;;18.10;99.10;;;;;;5095076;28;20020;-75
2022/08/05 04:14:17;;;;;;;5.75;5.13;;;18.20;98.40;;;;;;5095386;28;20019;-76
2022/08/05 04:16:43;;;;;;;7.25;4.90;;;18.30;98.40;;;;;;5095101;28;20056;-74
2022/08/05 04:19:12;;;;;;;5.60;5.15;;;18.40;98.20;;;;;;5095110;28;20020;-74
2022/08/05 04:21:38;;;;;;;9.32;5.68;;;18.50;97.10;;;;;;5095060;28;20496;-75
2022/08/05 04:24:04;;;;;;;7.63;4.85;;;18.60;97.70;;;;;;5094998;28;20068;-75
2022/08/05 04:26:30;;;;;;;5.43;4.70;;;18.70;97.00;;;;;;5093660;28;20031;-75
2022/08/05 04:28:55;;;;;;;6.80;4.82;;;18.70;97.00;;;;;;5093673;28;20032;-74
2022/08/05 04:31:21;;;;;;;8.45;5.22;;;18.80;96.20;;;;;;5094866;28;20090;-74
2022/08/05 04:33:47;;;;;;;7.18;5.18;;;18.90;96.20;;;;;;5093423;28;20032;-74
2022/08/05 04:36:14;;;;;;;5.60;5.10;;;18.90;97.00;;;;;;5094726;28;20031;-75
2022/08/05 04:38:42;;;;;;;5.32;4.88;;;19.00;95.10;;;;;;5094748;28;20409;-74
2022/08/05 04:41:07;;;;;;;5.68;5.18;;;19.10;95.50;;;;;;5094701;28;20016;-75
2022/08/05 04:43:33;;;;;;;8.27;5.13;;;19.20;95.10;;;;;;5092952;28;20359;-74
2022/08/05 04:45:59;;;;;;;6.40;5.03;;;19.40;92.70;;;;;;5094449;28;20102;-74
2022/08/05 04:48:24;;;;;;;6.32;5.40;;;19.50;90.90;;;;;;5094465;28;20484;-74
2022/08/05 04:50:50;;;;;;;5.50;4.93;;;19.50;92.10;;;;;;5093084;28;20059;-74
2022/08/05 04:53:17;;;;;;;6.80;5.05;;;19.60;90.20;;;;;;5094488;28;20043;-74
2022/08/05 04:55:44;;;;;;;7.40;5.32;;;19.60;90.10;;;;;;5094235;28;20385;-75
2022/08/05 04:58:11;;;;;;;6.43;4.80;;;19.70;90.90;;;;;;5094394;28;20020;-74
2022/08/05 05:00:37;;;;;;;6.30;4.75;;;19.80;89.30;;;;;;5094342;28;20069;-75
2022/08/05 05:03:04;;;;;;;5.05;4.65;;;19.90;91.10;;;;;;5094317;28;20032;-74
2022/08/05 05:05:30;;;;;;;5.50;4.78;;;20.00;91.20;;;;;;5093041;28;20048;-74
2022/08/05 05:08:01;;;;;;;5.78;5.28;;;19.90;92.10;;;;;;5092665;28;20494;-74
2022/08/05 05:10:31;;;;;;;6.65;5.43;;;20.00;92.00;;;;;;5094180;28;20385;-74
2022/08/05 05:12:57;;;;;;;7.80;4.90;;;20.10;92.10;;;;;;5094334;28;20012;-75
2022/08/05 05:15:23;;;;;;;5.57;5.10;;;20.20;91.20;;;;;;5092847;28;20023;-74
2022/08/05 05:17:49;;;;;;;8.88;4.90;;;20.20;89.60;;;;;;5093655;28;20035;-75
2022/08/05 05:20:15;;;;;;;9.85;5.25;;;20.30;90.40;;;;;;5093968;28;20028;-75
2022/08/05 05:22:41;;;;;;;5.22;4.72;;;20.40;91.20;;;;;;5093883;28;20020;-74
2022/08/05 05:25:07;;;;;;;7.45;5.30;;;20.40;89.60;;;;;;5093935;28;20042;-75
2022/08/05 05:27:35;;;;;;;5.13;4.68;;;20.50;91.40;;;;;;5093685;28;20028;-74
2022/08/05 05:30:01;;;;;;;6.13;5.40;;;20.50;91.20;;;;;;5092414;28;20046;-74
2022/08/05 05:32:27;;;;;;;5.93;4.68;;;20.70;89.90;;;;;;5093674;28;20017;-74
2022/08/05 05:34:53;;;;;;;5.57;4.88;;;20.80;87.00;;;;;;5093748;28;20090;-74
2022/08/05 05:37:19;;;;;;;5.95;4.82;;;20.90;84.80;;;;;;5092215;28;20118;-74
2022/08/05 05:39:44;;;;;;;5.20;4.75;;;21.10;85.10;;;;;;5093533;28;20016;-75
2022/08/05 05:42:10;;;;;;;7.30;4.80;;;21.20;84.50;;;;;;5093799;28;20382;-74
2022/08/05 05:44:36;;;;;;;4.97;4.55;;;21.20;81.20;;;;;;5092488;28;20107;-75
2022/08/05 05:47:01;;;;;;;5.07;4.15;;;21.30;81.60;;;;;;5091932;28;20157;-74
2022/08/05 05:49:27;;;;;;;6.72;4.70;;;21.40;81.40;;;;;;5093138;28;20518;-75
2022/08/05 05:51:53;;;;;;;4.80;4.38;;;21.50;82.30;;;;;;5093118;28;20025;-74
2022/08/05 05:54:19;;;;;;;4.57;3.90;;;21.50;80.50;;;;;;5091328;28;20016;-75
2022/08/05 05:56:45;;;;;;;6.07;4.22;;;21.60;82.00;;;;;;5093163;28;20103;-74
2022/08/05 05:59:11;;;;;;;5.00;4.65;;;21.70;81.00;;;;;;5093491;28;20445;-74
2022/08/05 06:01:39;;;;;;;5.50;4.97;;;21.80;81.30;;;;;;5092841;28;20485;-75
2022/08/05 06:04:10;;;;;;;5.85;4.88;;;21.90;81.10;;;;;;5093119;28;20027;-74
2022/08/05 06:06:36;;;;;;;9.75;5.00;;;22.00;80.20;;;;;;5091909;28;20535;-74
2022/08/05 06:09:04;;;;;;;5.07;4.68;;;22.20;80.70;;;;;;5093201;28;20028;-74
2022/08/05 06:11:32;;;;;;;5.13;4.72;;;22.30;80.10;;;;;;5093371;28;20091;-74
2022/08/05 06:13:59;;;;;;;5.57;3.95;;;22.50;79.50;;;;;;5092878;28;20106;-74
2022/08/05 06:16:25;;;;;;;5.28;4.78;;;22.60;77.60;;;;;;5093091;28;20389;-74
2022/08/05 06:18:50;;;;;;;7.03;5.07;;;22.80;77.60;;;;;;5092926;28;20103;-74
2022/08/05 06:21:16;;;;;;;5.20;4.57;;;22.90;76.20;;;;;;5093170;28;20024;-73
2022/08/05 06:23:42;;;;;;;5.15;4.60;;;23.00;77.10;;;;;;5092668;28;20028;-74
2022/08/05 06:26:08;;;;;;;4.35;4.03;;;23.00;74.10;;;;;;5092904;28;20438;-74
2022/08/05 06:28:33;;;;;;;5.00;4.60;;;23.20;73.80;;;;;;5092995;28;20024;-74
2022/08/05 06:30:59;;;;;;;4.63;4.22;;;23.30;74.10;;;;;;5093062;28;20089;-74
2022/08/05 06:33:24;;;;;;;4.95;4.45;;;23.40;74.20;;;;;;5092736;28;20465;-73
2022/08/05 06:35:50;;;;;;;5.10;4.68;;;23.50;72.90;;;;;;5083753;28;20028;-74
2022/08/05 06:38:16;;;;;;;6.25;4.53;;;23.60;71.50;;;;;;5090423;28;20024;-75
2022/08/05 06:40:42;;;;;;;6.05;5.03;;;23.70;70.80;;;;;;5091947;28;20020;-74
2022/08/05 06:43:08;;;;;;;4.88;4.47;;;23.90;72.10;;;;;;5091765;28;20032;-73
2022/08/05 06:45:33;;;;;;;10.18;5.40;;;24.00;71.20;;;;;;5092012;28;20393;-74
2022/08/05 06:47:59;;;;;;;5.38;4.88;;;24.20;70.30;;;;;;5091301;28;20105;-73
2022/08/05 06:50:25;;;;;;;5.15;4.40;;;24.20;68.20;;;;;;5090567;28;20097;-74
2022/08/05 06:52:51;;;;;;;5.45;4.95;;;24.30;67.60;;;;;;5082110;28;20431;-74
2022/08/05 06:55:17;;;;;;;5.32;3.90;;;24.50;68.30;;;;;;5091497;28;20016;-74
2022/08/05 06:57:42;;;;;;;6.05;4.80;;;24.60;67.70;;;;;;5091180;28;20031;-74
2022/08/05 07:00:09;;;;;;;6.97;5.30;;;24.70;66.90;;;;;;5089892;28;20109;-74
2022/08/05 07:02:41;;;;;;;7.63;5.28;;;24.80;67.00;;;;;;5090088;28;20050;-73
2022/08/05 07:05:07;;;;;;;4.82;4.43;;;25.00;67.30;;;;;;5091562;28;20020;-75
2022/08/05 07:07:33;;;;;;;5.22;4.80;;;25.20;66.20;;;;;;5096304;28;20024;-74
2022/08/05 07:09:59;;;;;;;5.50;4.90;;;25.40;65.40;;;;;;5096204;28;20097;-74
2022/08/05 07:17:53;;;;;;;6.50;5.38;;;25.70;63.40;;;;;;5095903;28;20085;-74
2022/08/05 07:20:18;;;;;;;5.60;4.40;;;25.90;63.90;;;;;;5086155;28;20393;-74
2022/08/05 07:22:44;;;;;;;5.43;4.18;;;26.10;64.40;;;;;;5094778;28;20024;-74
2022/08/05 07:25:10;;;;;;;4.78;4.25;;;26.30;61.90;;;;;;5096125;28;20024;-75
2022/08/05 07:27:35;;;;;;;5.85;4.75;;;26.20;61.90;;;;;;5095762;28;20035;-74
2022/08/05 07:30:01;;;;;;;5.03;4.63;;;26.30;62.50;;;;;;5095804;28;20115;-75
2022/08/05 07:32:26;;;;;;;6.03;5.50;;;26.40;61.90;;;;;;5081455;28;20016;-75
2022/08/05 07:34:52;;;;;;;5.50;5.03;;;26.50;61.90;;;;;;5095727;28;20088;-75
2022/08/05 07:37:18;;;;;;;6.53;5.18;;;26.60;61.30;;;;;;5093565;28;20020;-74
2022/08/05 07:39:44;;;;;;;5.50;4.95;;;26.60;61.70;;;;;;5095230;28;20024;-75
2022/08/05 07:42:09;;;;;;;4.97;4.53;;;26.80;59.60;;;;;;5092641;28;20108;-75
2022/08/05 07:44:35;;;;;;;5.85;5.38;;;26.90;60.00;;;;;;5094735;28;20016;-74
2022/08/05 07:47:00;;;;;;;5.47;5.03;;;27.10;59.80;;;;;;5080097;28;20035;-75
2022/08/05 07:49:26;;;;;;;6.53;5.20;;;27.20;59.00;;;;;;5086215;28;20029;-74
2022/08/05 07:51:52;;;;;;;6.22;5.03;;;27.40;59.40;;;;;;5088408;28;20123;-74
2022/08/05 07:54:17;;;;;;;4.90;4.50;;;27.50;57.70;;;;;;5094795;28;20073;-74
2022/08/05 07:56:43;;;;;;;8.95;5.75;;;27.60;57.00;;;;;;5091737;28;20031;-74
2022/08/05 07:59:08;;;;;;;5.32;4.93;;;27.60;56.20;;;;;;5093238;28;20098;-76
2022/08/05 08:01:34;;;;;;;6.57;5.90;;;27.70;57.10;;;;;;5093031;28;20028;-75
2022/08/05 08:04:03;;;;;;;7.03;4.65;;;27.80;57.70;;;;;;5092689;28;20051;-74
2022/08/05 08:06:30;;;;;;;5.97;5.38;;;28.00;57.70;;;;;;5092433;28;20020;-74
2022/08/05 08:08:55;;;;;;;6.07;5.63;;;27.90;55.50;;;;;;5094027;28;20571;-74
2022/08/05 08:11:21;;;;;;;8.32;6.57;;;28.00;55.70;;;;;;5093687;28;20051;-74
2022/08/05 08:13:46;;;;;;;5.07;4.68;;;28.10;55.90;;;;;;5082351;28;20382;-74
2022/08/05 08:16:12;;;;;;;6.20;5.40;;;28.20;56.00;;;;;;5094170;28;20017;-74
2022/08/05 08:18:38;;;;;;;5.63;5.07;;;28.40;56.20;;;;;;5094371;28;20038;-74
2022/08/05 08:21:04;;;;;;;5.78;5.35;;;28.40;55.80;;;;;;5093341;28;20107;-74
2022/08/05 08:23:30;;;;;;;6.47;5.88;;;28.50;55.80;;;;;;5093443;28;20020;-74
2022/08/05 08:25:56;;;;;;;6.57;5.55;;;28.40;55.30;;;;;;5094476;28;20046;-74
2022/08/05 08:28:21;;;;;;;5.95;5.55;;;28.50;55.70;;;;;;5093418;28;20020;-74
2022/08/05 08:30:47;;;;;;;7.05;5.47;;;28.70;54.90;;;;;;5093751;28;20082;-74
2022/08/05 08:33:13;;;;;;;6.32;5.65;;;28.70;55.70;;;;;;5094496;28;20035;-74
2022/08/05 08:35:38;;;;;;;6.03;5.53;;;28.70;54.30;;;;;;5094461;28;20020;-73
2022/08/05 08:38:04;;;;;;;5.90;5.40;;;28.70;54.70;;;;;;5093118;28;20491;-74
2022/08/05 08:40:33;;;;;;;6.78;6.18;;;28.90;54.80;;;;;;5094400;28;20028;-74
2022/08/05 08:43:00;;;;;;;10.27;6.30;;;28.90;53.90;;;;;;5093082;28;20447;-74
2022/08/05 08:45:26;;;;;;;6.65;6.05;;;28.90;53.50;;;;;;5092348;28;20059;-74
2022/08/05 08:47:53;;;;;;;6.78;6.28;;;29.00;54.50;;;;;;5094030;28;20141;-74
2022/08/05 08:50:20;;;;;;;6.80;5.45;;;28.90;53.80;;;;;;5079054;28;20068;-74
2022/08/05 08:52:51;;;;;;;6.53;5.93;;;28.80;54.10;;;;;;5094205;28;20031;-74
2022/08/05 08:55:18;;;;;;;6.43;5.78;;;28.90;54.70;;;;;;5094028;28;20035;-74
2022/08/05 08:57:45;;;;;;;7.65;6.05;;;29.00;54.70;;;;;;5094094;28;20377;-74
2022/08/05 09:00:11;;;;;;;6.45;5.85;;;29.20;55.20;;;;;;5093293;28;20016;-74
2022/08/05 09:02:38;;;;;;;9.40;5.90;;;29.40;54.20;;;;;;5092671;28;20141;-74
2022/08/05 09:05:04;;;;;;;7.20;6.32;;;29.50;54.00;;;;;;5093763;28;20020;-75
2022/08/05 09:07:29;;;;;;;8.02;6.22;;;29.40;53.80;;;;;;5093859;28;20494;-74
2022/08/05 09:09:55;;;;;;;6.32;5.20;;;29.50;52.90;;;;;;5093648;28;20462;-75
2022/08/05 09:12:21;;;;;;;7.70;5.95;;;29.50;53.20;;;;;;5093889;28;20080;-74
2022/08/05 09:14:46;;;;;;;6.57;5.95;;;29.70;53.30;;;;;;5091848;28;20020;-74
2022/08/05 09:17:13;;;;;;;6.85;6.35;;;29.90;53.80;;;;;;5092312;28;20031;-74
2022/08/05 09:19:39;;;;;;;6.47;5.60;;;29.90;51.80;;;;;;5093455;28;20381;-74
2022/08/05 09:22:07;;;;;;;7.40;5.85;;;30.00;51.80;;;;;;5092298;28;20049;-74
2022/08/05 09:24:34;;;;;;;6.30;5.80;;;30.20;52.30;;;;;;5093559;28;20031;-74
2022/08/05 09:27:00;;;;;;;7.32;6.38;;;30.20;51.30;;;;;;5092104;28;20020;-74
2022/08/05 09:29:46;;;;;;;6.63;5.93;;;30.10;51.40;;;;;;5091543;28;20115;-74
2022/08/05 09:32:11;;;;;;;6.20;5.70;;;30.20;51.30;;;;;;5093808;28;20385;-74
2022/08/05 09:34:54;;;;;;;6.93;6.32;;;30.30;50.70;;;;;;5079830;28;20029;-74
2022/08/05 09:37:22;;;;;;;8.32;6.28;;;30.50;50.40;;;;;;5092057;28;20035;-74
2022/08/05 09:39:48;;;;;;;6.82;6.22;;;30.40;50.30;;;;;;5093523;28;20065;-74
2022/08/05 09:42:16;;;;;;;7.85;6.53;;;30.40;49.70;;;;;;5093490;28;20120;-74
2022/08/05 09:44:44;;;;;;;7.85;7.15;;;30.40;49.60;;;;;;5092925;28;20093;-74
2022/08/05 09:47:21;;;;;;;6.88;6.25;;;30.50;49.80;;;;;;5092920;28;20028;-74
2022/08/05 09:49:55;;;;;;;9.13;6.85;;;30.50;49.70;;;;;;5080609;28;20039;-73
2022/08/05 09:52:27;;;;;;;7.15;6.45;;;30.60;49.80;;;;;;5092367;28;20030;-72
2022/08/05 09:54:55;;;;;;;6.63;5.90;;;30.60;49.40;;;;;;5091907;28;20024;-73
2022/08/05 09:57:56;;;;;;;6.38;5.82;;;30.30;48.20;;;;;;5078449;28;20020;-73
2022/08/05 10:00:23;;;;;;;7.78;7.07;;;30.20;48.50;;;;;;5090348;28;20439;-73
2022/08/05 10:02:53;;;;;;;6.75;6.25;;;30.20;48.40;;;;;;5092465;28;20047;-73
2022/08/05 10:05:26;;;;;;;8.40;6.07;;;30.40;48.80;;;;;;5092538;28;20062;-73
2022/08/05 10:08:05;;;;;;;6.90;6.30;;;30.50;48.10;;;;;;5091070;28;20070;-73
2022/08/05 10:10:38;;;;;;;6.70;6.18;;;30.40;47.80;;;;;;5092459;28;20040;-73
2022/08/05 10:13:05;;;;;;;7.13;6.43;;;30.60;47.50;;;;;;5091456;28;20025;-73
2022/08/05 10:15:34;;;;;;;6.47;5.97;;;30.80;47.60;;;;;;5092291;28;20440;-73
2022/08/05 10:18:21;;;;;;;6.72;6.22;;;30.90;46.20;;;;;;5091502;28;20039;-73
2022/08/05 10:20:49;;;;;;;7.93;7.32;;;31.00;46.50;;;;;;5092849;28;20028;-73
2022/08/05 10:23:24;;;;;;;6.55;6.05;;;31.10;46.50;;;;;;5092691;28;20031;-73
2022/08/05 10:25:50;;;;;;;6.50;6.00;;;31.10;45.30;;;;;;5092593;28;20016;-73
2022/08/05 10:28:16;;;;;;;6.55;6.07;;;31.20;46.00;;;;;;5092301;28;20096;-73
2022/08/05 10:30:42;;;;;;;5.88;5.40;;;31.20;44.70;;;;;;5092832;28;20396;-73
2022/08/05 10:33:08;;;;;;;6.40;5.88;;;31.30;45.60;;;;;;5092780;28;20101;-72
2022/08/05 10:35:35;;;;;;;7.90;5.70;;;31.60;46.70;;;;;;5092820;28;20435;-73
2022/08/05 10:38:02;;;;;;;6.20;5.70;;;31.60;44.20;;;;;;5092732;28;20040;-74
2022/08/05 10:40:48;;;;;;;7.57;5.00;;;31.60;42.00;;;;;;5094272;28;20185;-74
2022/08/05 10:43:31;;;;;;;6.13;5.55;;;31.40;41.30;;;;;;5096138;28;20102;-73
2022/08/05 10:45:59;;;;;;;5.72;5.30;;;31.50;41.40;;;;;;5094038;28;20514;-73
2022/08/05 10:48:35;;;;;;;5.80;5.30;;;31.30;41.50;;;;;;5094737;28;20410;-74
2022/08/05 10:51:13;;;;;;;9.43;5.60;;;31.30;41.10;;;;;;5084903;28;20044;-72
2022/08/05 10:53:54;;;;;;;6.55;6.03;;;31.30;41.50;;;;;;5096433;28;20032;-73
2022/08/05 10:56:26;;;;;;;6.00;5.60;;;31.50;42.20;;;;;;5096541;28;20031;-73
2022/08/05 10:58:51;;;;;;;;;;;31.60;41.90;;;;;;5096502;28;20132;-73
2022/08/05 11:01:17;;;;;;;5.60;5.10;;;31.70;41.80;;;;;;5082285;28;20370;-72
2022/08/05 11:04:04;;;;;;;6.45;5.85;;;31.60;41.20;;;;;;5095706;28;20024;-72
2022/08/05 11:06:30;;;;;;;6.10;5.50;;;31.60;41.00;;;;;;5091859;28;20624;-73
2022/08/05 11:09:20;;;;;;;7.65;5.68;;;31.70;41.00;;;;;;5091696;28;20110;-74
2022/08/05 11:11:49;;;;;;;5.78;5.28;;;31.80;40.90;;;;;;5092822;28;20032;-74
2022/08/05 11:14:30;;;;;;;6.03;5.20;;;31.80;40.30;;;;;;5092528;28;20150;-74
2022/08/05 11:17:28;;;;;;;5.95;5.40;;;32.00;42.10;;;;;;5091539;28;20020;-72
2022/08/05 11:19:55;;;;;;;5.53;5.13;;;31.90;40.30;;;;;;5092959;28;20089;-74
2022/08/05 11:22:51;;;;;;;6.65;5.18;;;31.90;41.40;;;;;;5093256;28;20024;-72
2022/08/05 11:25:37;;;;;;;6.25;5.72;;;31.90;41.60;;;;;;5094132;28;20043;-75
2022/08/05 11:28:10;;;;;;;6.03;5.50;;;31.90;42.40;;;;;;5095326;28;20020;-75
2022/08/05 11:30:54;;;;;;;6.13;5.53;;;31.80;41.30;;;;;;5095934;28;20032;-72
2022/08/05 11:33:35;;;;;;;5.75;5.25;;;31.80;40.30;;;;;;5094387;28;20038;-75
2022/08/05 11:36:08;;;;;;;5.60;5.10;;;31.70;40.30;;;;;;5093402;28;20024;-75
2022/08/05 11:38:43;;;;;;;7.10;5.13;;;31.60;40.20;;;;;;5095071;28;20013;-75
2022/08/05 11:41:25;;;;;;;5.72;5.32;;;31.50;40.10;;;;;;5093694;28;20050;-73
2022/08/05 11:43:59;;;;;;;6.53;5.80;;;31.50;40.50;;;;;;5092819;28;20040;-75
2022/08/05 11:46:25;;;;;;;5.50;5.00;;;31.80;41.30;;;;;;5093715;28;20027;-73
2022/08/05 11:48:52;;;;;;;6.75;6.05;;;31.90;40.70;;;;;;5091862;28;20075;-74
2022/08/05 11:51:18;;;;;;;5.93;5.43;;;32.10;41.20;;;;;;5094275;28;20028;-73
2022/08/05 11:53:44;;;;;;;6.18;5.68;;;32.10;41.60;;;;;;5094846;28;20032;-75
2022/08/05 11:56:10;;;;;;;6.18;5.68;;;31.90;40.60;;;;;;5093651;28;20032;-74
2022/08/05 11:58:41;;;;;;;9.93;6.22;;;31.90;40.30;;;;;;5094042;28;20425;-73
2022/08/05 12:01:09;;;;;;;6.53;5.93;;;32.00;41.00;;;;;;5093992;28;20115;-75
2022/08/05 12:03:51;;;;;;;5.90;5.40;;;32.10;41.40;;;;;;5095205;28;20027;-75
2022/08/05 12:06:21;;;;;;;5.47;5.07;;;32.10;40.90;;;;;;5094091;28;20028;-75
2022/08/05 12:08:50;;;;;;;5.90;5.50;;;32.10;40.30;;;;;;5095369;28;20027;-73
2022/08/05 12:11:21;;;;;;;5.82;5.30;;;31.90;39.30;;;;;;5095365;28;20028;-75
2022/08/05 12:14:02;;;;;;;5.45;5.03;;;32.10;39.70;;;;;;5095387;28;20024;-75
2022/08/05 12:16:34;;;;;;;6.63;5.97;;;31.90;39.70;;;;;;5093869;28;20024;-75
2022/08/05 12:19:00;;;;;;;7.07;5.55;;;32.00;40.40;;;;;;5094998;28;20052;-73
2022/08/05 12:21:32;;;;;;;7.85;5.43;;;32.10;39.80;;;;;;5095022;28;20058;-75
2022/08/05 12:24:01;;;;;;;6.28;5.68;;;32.30;40.40;;;;;;5095261;28;20069;-73
2022/08/05 12:26:34;;;;;;;6.10;5.60;;;32.20;39.40;;;;;;5094992;28;20020;-73
2022/08/05 12:29:00;;;;;;;5.60;5.10;;;32.20;38.30;;;;;;5094945;28;20020;-75
2022/08/05 12:31:26;;;;;;;6.78;5.05;;;32.30;39.10;;;;;;5089894;28;20089;-73
2022/08/05 12:33:53;;;;;;;7.10;5.65;;;32.30;39.80;;;;;;5087363;28;20529;-75
2022/08/05 12:36:20;;;;;;;9.80;5.35;;;32.30;40.00;;;;;;5075988;28;20020;-73
2022/08/05 12:38:45;;;;;;;6.35;5.47;;;32.30;39.70;;;;;;5084519;28;20041;-75
2022/08/05 12:41:13;;;;;;;6.28;5.03;;;32.30;39.20;;;;;;5094087;28;20036;-75
2022/08/05 12:44:09;;;;;;;6.28;5.30;;;32.40;39.00;;;;;;5094103;28;20045;-75
2022/08/05 12:46:36;;;;;;;6.03;5.45;;;32.60;38.50;;;;;;5079013;28;20546;-73
2022/08/05 12:49:13;;;;;;;6.57;5.20;;;32.60;38.80;;;;;;5093434;28;20241;-73
2022/08/05 12:51:48;;;;;;;6.07;5.47;;;32.70;39.10;;;;;;5094156;28;20398;-75
2022/08/05 12:54:29;;;;;;;5.65;5.18;;;32.80;39.00;;;;;;5092116;28;20393;-75
2022/08/05 12:57:00;;;;;;;5.57;5.13;;;32.90;38.90;;;;;;5090520;28;20027;-75
2022/08/05 12:59:30;;;;;;;5.60;5.07;;;33.00;38.70;;;;;;5088495;28;20020;-74
2022/08/05 13:01:58;;;;;;;5.82;5.20;;;32.90;37.60;;;;;;5092964;28;20534;-75